sensor_id;sensor_type;location;lat;lon;timestamp;temperature;humidity
73277;DHT22;61501;43.316;5.372;2023-01-28T00:01:08;4.00;87.10
73277;DHT22;61501;43.316;5.372;2023-01-28T00:03:34;4.00;87.00
73277;DHT22;61501;43.316;5.372;2023-01-28T00:06:05;4.00;87.10
73277;DHT22;61501;43.316;5.372;2023-01-28T00:08:31;4.00;87.60
73277;DHT22;61501;43.316;5.372;2023-01-28T00:11:02;4.00;87.80
73277;DHT22;61501;43.316;5.372;2023-01-28T00:13:28;4.00;87.90
73277;DHT22;61501;43.316;5.372;2023-01-28T00:15:59;4.00;87.70
73277;DHT22;61501;43.316;5.372;2023-01-28T00:18:26;4.00;88.30
73277;DHT22;61501;43.316;5.372;2023-01-28T00:21:12;3.90;87.80
73277;DHT22;61501;43.316;5.372;2023-01-28T00:23:40;3.80;88.50
73277;DHT22;61501;43.316;5.372;2023-01-28T00:26:10;3.90;88.60
73277;DHT22;61501;43.316;5.372;2023-01-28T00:28:36;3.90;88.40
73277;DHT22;61501;43.316;5.372;2023-01-28T00:31:06;3.90;88.00
73277;DHT22;61501;43.316;5.372;2023-01-28T00:33:32;3.90;88.40
73277;DHT22;61501;43.316;5.372;2023-01-28T00:35:58;3.90;87.90
73277;DHT22;61501;43.316;5.372;2023-01-28T00:38:25;3.90;87.70
73277;DHT22;61501;43.316;5.372;2023-01-28T00:40:51;4.00;88.00
73277;DHT22;61501;43.316;5.372;2023-01-28T00:43:18;4.00;87.80
73277;DHT22;61501;43.316;5.372;2023-01-28T00:45:43;4.10;88.00
73277;DHT22;61501;43.316;5.372;2023-01-28T00:48:09;4.10;87.80
73277;DHT22;61501;43.316;5.372;2023-01-28T00:50:34;4.10;87.30
73277;DHT22;61501;43.316;5.372;2023-01-28T00:53:00;4.20;87.10
73277;DHT22;61501;43.316;5.372;2023-01-28T00:55:26;4.20;87.30
73277;DHT22;61501;43.316;5.372;2023-01-28T00:57:53;4.10;87.30
73277;DHT22;61501;43.316;5.372;2023-01-28T01:00:19;4.10;87.30
73277;DHT22;61501;43.316;5.372;2023-01-28T01:02:51;4.00;87.70
73277;DHT22;61501;43.316;5.372;2023-01-28T01:05:17;4.00;88.00
73277;DHT22;61501;43.316;5.372;2023-01-28T01:07:43;4.00;87.80
73277;DHT22;61501;43.316;5.372;2023-01-28T01:10:14;4.00;88.00
73277;DHT22;61501;43.316;5.372;2023-01-28T01:12:40;3.90;88.20
73277;DHT22;61501;43.316;5.372;2023-01-28T01:15:07;3.90;88.50
73277;DHT22;61501;43.316;5.372;2023-01-28T01:17:38;3.90;89.10
73277;DHT22;61501;43.316;5.372;2023-01-28T01:20:06;4.00;88.30
73277;DHT22;61501;43.316;5.372;2023-01-28T01:22:34;3.90;88.80
73277;DHT22;61501;43.316;5.372;2023-01-28T01:25:00;4.00;89.20
73277;DHT22;61501;43.316;5.372;2023-01-28T01:27:26;3.90;88.40
73277;DHT22;61501;43.316;5.372;2023-01-28T01:29:51;3.90;88.40
73277;DHT22;61501;43.316;5.372;2023-01-28T01:32:17;4.00;88.40
73277;DHT22;61501;43.316;5.372;2023-01-28T01:34:43;3.90;88.20
73277;DHT22;61501;43.316;5.372;2023-01-28T01:37:09;3.90;88.80
73277;DHT22;61501;43.316;5.372;2023-01-28T01:39:35;3.90;89.40
73277;DHT22;61501;43.316;5.372;2023-01-28T01:42:01;3.90;89.20
73277;DHT22;61501;43.316;5.372;2023-01-28T01:47:32;3.90;88.90
73277;DHT22;61501;43.316;5.372;2023-01-28T01:50:45;3.80;89.00
73277;DHT22;61501;43.316;5.372;2023-01-28T01:52:53;3.90;88.70
73277;DHT22;61501;43.316;5.372;2023-01-28T01:55:23;3.80;89.10
73277;DHT22;61501;43.316;5.372;2023-01-28T01:57:51;3.90;89.10
73277;DHT22;61501;43.316;5.372;2023-01-28T02:00:17;3.90;89.10
73277;DHT22;61501;43.316;5.372;2023-01-28T02:02:46;3.90;88.80
73277;DHT22;61501;43.316;5.372;2023-01-28T02:05:17;4.00;89.20
73277;DHT22;61501;43.316;5.372;2023-01-28T02:07:44;4.00;88.60
73277;DHT22;61501;43.316;5.372;2023-01-28T02:10:11;4.00;88.60
73277;DHT22;61501;43.316;5.372;2023-01-28T02:12:41;4.00;89.20
73277;DHT22;61501;43.316;5.372;2023-01-28T02:15:13;4.00;88.80
73277;DHT22;61501;43.316;5.372;2023-01-28T02:17:40;4.10;89.10
73277;DHT22;61501;43.316;5.372;2023-01-28T02:28:12;4.10;88.00
73277;DHT22;61501;43.316;5.372;2023-01-28T02:30:41;4.20;87.80
73277;DHT22;61501;43.316;5.372;2023-01-28T02:33:33;4.20;87.50
73277;DHT22;61501;43.316;5.372;2023-01-28T02:39:00;4.20;87.00
73277;DHT22;61501;43.316;5.372;2023-01-28T02:41:33;4.10;87.30
73277;DHT22;61501;43.316;5.372;2023-01-28T02:44:02;4.10;87.40
73277;DHT22;61501;43.316;5.372;2023-01-28T02:49:18;4.10;87.00
73277;DHT22;61501;43.316;5.372;2023-01-28T02:55:00;4.20;86.00
73277;DHT22;61501;43.316;5.372;2023-01-28T02:57:42;4.10;85.80
73277;DHT22;61501;43.316;5.372;2023-01-28T03:00:33;4.10;86.10
73277;DHT22;61501;43.316;5.372;2023-01-28T03:05:41;4.20;86.20
73277;DHT22;61501;43.316;5.372;2023-01-28T03:08:41;4.20;85.50
73277;DHT22;61501;43.316;5.372;2023-01-28T03:11:28;4.10;84.60
73277;DHT22;61501;43.316;5.372;2023-01-28T03:14:15;4.10;84.50
73277;DHT22;61501;43.316;5.372;2023-01-28T03:17:02;4.10;84.90
73277;DHT22;61501;43.316;5.372;2023-01-28T03:19:48;4.00;84.70
73277;DHT22;61501;43.316;5.372;2023-01-28T03:22:37;3.90;85.20
73277;DHT22;61501;43.316;5.372;2023-01-28T03:25:25;3.90;85.60
73277;DHT22;61501;43.316;5.372;2023-01-28T03:28:14;3.90;85.30
73277;DHT22;61501;43.316;5.372;2023-01-28T03:33:48;3.90;84.60
73277;DHT22;61501;43.316;5.372;2023-01-28T03:36:34;3.90;85.20
73277;DHT22;61501;43.316;5.372;2023-01-28T03:39:13;4.00;84.70
73277;DHT22;61501;43.316;5.372;2023-01-28T03:41:39;4.10;85.50
73277;DHT22;61501;43.316;5.372;2023-01-28T03:44:06;4.10;84.20
73277;DHT22;61501;43.316;5.372;2023-01-28T03:46:50;4.00;83.70
73277;DHT22;61501;43.316;5.372;2023-01-28T03:49:16;4.00;83.90
73277;DHT22;61501;43.316;5.372;2023-01-28T03:51:42;4.00;84.10
73277;DHT22;61501;43.316;5.372;2023-01-28T03:54:09;4.00;84.20
73277;DHT22;61501;43.316;5.372;2023-01-28T03:56:34;4.00;84.10
73277;DHT22;61501;43.316;5.372;2023-01-28T03:59:03;4.00;84.20
73277;DHT22;61501;43.316;5.372;2023-01-28T04:01:28;4.00;85.20
73277;DHT22;61501;43.316;5.372;2023-01-28T04:03:54;4.00;84.20
73277;DHT22;61501;43.316;5.372;2023-01-28T04:06:20;3.90;83.50
73277;DHT22;61501;43.316;5.372;2023-01-28T04:08:45;3.90;83.50
73277;DHT22;61501;43.316;5.372;2023-01-28T04:11:17;3.80;83.00
73277;DHT22;61501;43.316;5.372;2023-01-28T04:13:46;3.70;82.90
73277;DHT22;61501;43.316;5.372;2023-01-28T04:16:13;3.70;82.00
73277;DHT22;61501;43.316;5.372;2023-01-28T04:18:39;3.70;81.80
73277;DHT22;61501;43.316;5.372;2023-01-28T04:21:05;3.70;81.90
73277;DHT22;61501;43.316;5.372;2023-01-28T04:23:30;3.60;81.60
73277;DHT22;61501;43.316;5.372;2023-01-28T04:25:56;3.60;81.50
73277;DHT22;61501;43.316;5.372;2023-01-28T04:28:22;3.60;81.20
73277;DHT22;61501;43.316;5.372;2023-01-28T04:30:48;3.60;80.60
73277;DHT22;61501;43.316;5.372;2023-01-28T04:33:13;3.50;81.00
73277;DHT22;61501;43.316;5.372;2023-01-28T04:35:39;3.50;80.40
73277;DHT22;61501;43.316;5.372;2023-01-28T04:38:05;3.50;79.60
73277;DHT22;61501;43.316;5.372;2023-01-28T04:40:31;3.60;79.60
73277;DHT22;61501;43.316;5.372;2023-01-28T04:42:57;3.50;80.00
73277;DHT22;61501;43.316;5.372;2023-01-28T04:45:23;3.50;79.30
73277;DHT22;61501;43.316;5.372;2023-01-28T04:47:49;3.50;79.20
73277;DHT22;61501;43.316;5.372;2023-01-28T04:50:15;3.50;78.90
73277;DHT22;61501;43.316;5.372;2023-01-28T04:52:40;3.50;79.20
73277;DHT22;61501;43.316;5.372;2023-01-28T04:55:07;3.50;79.40
73277;DHT22;61501;43.316;5.372;2023-01-28T04:57:33;3.60;79.30
73277;DHT22;61501;43.316;5.372;2023-01-28T04:59:59;3.60;79.10
73277;DHT22;61501;43.316;5.372;2023-01-28T05:02:24;3.60;79.20
73277;DHT22;61501;43.316;5.372;2023-01-28T05:04:50;3.70;78.70
73277;DHT22;61501;43.316;5.372;2023-01-28T05:07:16;3.70;78.00
73277;DHT22;61501;43.316;5.372;2023-01-28T05:09:41;3.80;78.00
73277;DHT22;61501;43.316;5.372;2023-01-28T05:12:07;3.80;77.20
73277;DHT22;61501;43.316;5.372;2023-01-28T05:14:33;3.90;76.70
73277;DHT22;61501;43.316;5.372;2023-01-28T05:16:58;3.90;76.40
73277;DHT22;61501;43.316;5.372;2023-01-28T05:19:24;4.00;75.80
73277;DHT22;61501;43.316;5.372;2023-01-28T05:21:50;3.90;74.90
73277;DHT22;61501;43.316;5.372;2023-01-28T05:24:15;4.00;74.80
73277;DHT22;61501;43.316;5.372;2023-01-28T05:26:41;4.00;74.90
73277;DHT22;61501;43.316;5.372;2023-01-28T05:29:07;4.00;74.90
73277;DHT22;61501;43.316;5.372;2023-01-28T05:31:33;4.00;74.50
73277;DHT22;61501;43.316;5.372;2023-01-28T05:33:59;4.00;74.20
73277;DHT22;61501;43.316;5.372;2023-01-28T05:36:24;4.00;73.60
73277;DHT22;61501;43.316;5.372;2023-01-28T05:38:50;4.00;73.50
73277;DHT22;61501;43.316;5.372;2023-01-28T05:41:16;4.00;73.00
73277;DHT22;61501;43.316;5.372;2023-01-28T05:43:41;4.00;73.70
73277;DHT22;61501;43.316;5.372;2023-01-28T05:46:07;4.00;72.90
73277;DHT22;61501;43.316;5.372;2023-01-28T05:48:32;4.00;72.90
73277;DHT22;61501;43.316;5.372;2023-01-28T05:50:58;4.00;73.00
73277;DHT22;61501;43.316;5.372;2023-01-28T05:53:24;4.00;72.90
73277;DHT22;61501;43.316;5.372;2023-01-28T05:55:50;4.00;73.20
73277;DHT22;61501;43.316;5.372;2023-01-28T05:58:18;4.00;73.30
73277;DHT22;61501;43.316;5.372;2023-01-28T06:00:44;4.10;73.00
73277;DHT22;61501;43.316;5.372;2023-01-28T06:03:10;4.20;73.20
73277;DHT22;61501;43.316;5.372;2023-01-28T06:05:36;4.20;72.70
73277;DHT22;61501;43.316;5.372;2023-01-28T06:08:01;4.30;72.70
73277;DHT22;61501;43.316;5.372;2023-01-28T06:10:27;4.40;74.00
73277;DHT22;61501;43.316;5.372;2023-01-28T06:12:53;4.30;73.00
73277;DHT22;61501;43.316;5.372;2023-01-28T06:15:18;4.40;72.80
73277;DHT22;61501;43.316;5.372;2023-01-28T06:17:44;4.50;73.40
73277;DHT22;61501;43.316;5.372;2023-01-28T06:20:10;4.40;72.40
73277;DHT22;61501;43.316;5.372;2023-01-28T06:22:36;4.40;73.20
73277;DHT22;61501;43.316;5.372;2023-01-28T06:25:01;4.50;73.30
73277;DHT22;61501;43.316;5.372;2023-01-28T06:27:27;4.50;72.80
73277;DHT22;61501;43.316;5.372;2023-01-28T06:29:53;4.60;72.50
73277;DHT22;61501;43.316;5.372;2023-01-28T06:32:18;4.50;72.20
73277;DHT22;61501;43.316;5.372;2023-01-28T06:34:45;4.50;71.80
73277;DHT22;61501;43.316;5.372;2023-01-28T06:37:14;4.50;71.30
73277;DHT22;61501;43.316;5.372;2023-01-28T06:39:40;4.40;71.90
73277;DHT22;61501;43.316;5.372;2023-01-28T06:42:05;4.40;71.60
73277;DHT22;61501;43.316;5.372;2023-01-28T06:44:31;4.30;71.80
73277;DHT22;61501;43.316;5.372;2023-01-28T06:46:57;4.20;72.30
73277;DHT22;61501;43.316;5.372;2023-01-28T06:49:22;4.10;72.50
73277;DHT22;61501;43.316;5.372;2023-01-28T06:51:48;4.20;71.90
73277;DHT22;61501;43.316;5.372;2023-01-28T06:54:14;4.10;71.50
73277;DHT22;61501;43.316;5.372;2023-01-28T06:56:40;4.10;71.40
73277;DHT22;61501;43.316;5.372;2023-01-28T06:59:07;4.00;71.30
73277;DHT22;61501;43.316;5.372;2023-01-28T07:01:33;3.90;71.60
73277;DHT22;61501;43.316;5.372;2023-01-28T07:03:58;3.90;71.80
73277;DHT22;61501;43.316;5.372;2023-01-28T07:06:24;3.80;72.30
73277;DHT22;61501;43.316;5.372;2023-01-28T07:08:50;3.80;72.40
73277;DHT22;61501;43.316;5.372;2023-01-28T07:11:15;3.80;72.60
73277;DHT22;61501;43.316;5.372;2023-01-28T07:13:41;3.80;72.50
73277;DHT22;61501;43.316;5.372;2023-01-28T07:16:08;3.80;72.70
73277;DHT22;61501;43.316;5.372;2023-01-28T07:18:34;3.80;72.90
73277;DHT22;61501;43.316;5.372;2023-01-28T07:20:59;3.80;72.70
73277;DHT22;61501;43.316;5.372;2023-01-28T07:23:25;3.90;72.70
73277;DHT22;61501;43.316;5.372;2023-01-28T07:25:51;3.90;72.50
73277;DHT22;61501;43.316;5.372;2023-01-28T07:28:17;3.90;72.90
73277;DHT22;61501;43.316;5.372;2023-01-28T07:30:49;3.90;72.80
73277;DHT22;61501;43.316;5.372;2023-01-28T07:33:16;3.90;73.00
73277;DHT22;61501;43.316;5.372;2023-01-28T07:35:42;4.00;73.20
73277;DHT22;61501;43.316;5.372;2023-01-28T07:38:08;4.00;72.90
73277;DHT22;61501;43.316;5.372;2023-01-28T07:40:34;4.10;72.90
73277;DHT22;61501;43.316;5.372;2023-01-28T07:42:59;4.10;72.60
73277;DHT22;61501;43.316;5.372;2023-01-28T07:45:25;4.10;72.50
73277;DHT22;61501;43.316;5.372;2023-01-28T07:47:58;4.10;73.00
73277;DHT22;61501;43.316;5.372;2023-01-28T07:50:24;4.10;73.10
73277;DHT22;61501;43.316;5.372;2023-01-28T07:52:50;4.10;73.10
73277;DHT22;61501;43.316;5.372;2023-01-28T07:55:16;4.10;72.90
73277;DHT22;61501;43.316;5.372;2023-01-28T07:58:09;4.10;72.80
73277;DHT22;61501;43.316;5.372;2023-01-28T08:00:36;4.10;73.10
73277;DHT22;61501;43.316;5.372;2023-01-28T08:03:04;4.10;73.50
73277;DHT22;61501;43.316;5.372;2023-01-28T08:05:56;4.00;72.90
73277;DHT22;61501;43.316;5.372;2023-01-28T08:08:23;4.00;73.40
73277;DHT22;61501;43.316;5.372;2023-01-28T08:10:49;3.90;73.30
73277;DHT22;61501;43.316;5.372;2023-01-28T08:13:16;3.90;73.50
73277;DHT22;61501;43.316;5.372;2023-01-28T08:15:43;3.90;73.60
73277;DHT22;61501;43.316;5.372;2023-01-28T08:18:11;4.00;73.80
73277;DHT22;61501;43.316;5.372;2023-01-28T08:20:38;4.10;73.50
73277;DHT22;61501;43.316;5.372;2023-01-28T08:23:18;4.10;73.50
73277;DHT22;61501;43.316;5.372;2023-01-28T08:25:45;4.00;73.60
73277;DHT22;61501;43.316;5.372;2023-01-28T08:28:12;4.00;72.50
73277;DHT22;61501;43.316;5.372;2023-01-28T08:30:38;3.90;72.60
73277;DHT22;61501;43.316;5.372;2023-01-28T08:33:06;3.90;72.40
73277;DHT22;61501;43.316;5.372;2023-01-28T08:35:32;3.90;72.60
73277;DHT22;61501;43.316;5.372;2023-01-28T08:37:59;3.90;72.50
73277;DHT22;61501;43.316;5.372;2023-01-28T08:40:29;3.90;73.40
73277;DHT22;61501;43.316;5.372;2023-01-28T08:42:55;4.00;73.40
73277;DHT22;61501;43.316;5.372;2023-01-28T08:45:22;4.00;73.90
73277;DHT22;61501;43.316;5.372;2023-01-28T08:47:57;4.00;73.90
73277;DHT22;61501;43.316;5.372;2023-01-28T08:50:26;4.00;75.50
73277;DHT22;61501;43.316;5.372;2023-01-28T08:52:56;4.00;74.80
73277;DHT22;61501;43.316;5.372;2023-01-28T08:55:23;4.00;74.50
73277;DHT22;61501;43.316;5.372;2023-01-28T08:57:49;4.00;74.40
73277;DHT22;61501;43.316;5.372;2023-01-28T09:00:17;4.00;74.70
73277;DHT22;61501;43.316;5.372;2023-01-28T09:02:43;4.00;73.80
73277;DHT22;61501;43.316;5.372;2023-01-28T09:05:08;4.00;73.90
73277;DHT22;61501;43.316;5.372;2023-01-28T09:07:35;4.00;73.90
73277;DHT22;61501;43.316;5.372;2023-01-28T09:10:02;3.90;73.80
73277;DHT22;61501;43.316;5.372;2023-01-28T09:12:28;4.00;73.90
73277;DHT22;61501;43.316;5.372;2023-01-28T09:14:54;4.00;73.90
73277;DHT22;61501;43.316;5.372;2023-01-28T09:17:20;4.00;74.20
73277;DHT22;61501;43.316;5.372;2023-01-28T09:19:46;4.10;74.30
73277;DHT22;61501;43.316;5.372;2023-01-28T09:22:12;4.20;74.00
73277;DHT22;61501;43.316;5.372;2023-01-28T09:24:37;4.20;73.90
73277;DHT22;61501;43.316;5.372;2023-01-28T09:27:03;4.30;73.60
73277;DHT22;61501;43.316;5.372;2023-01-28T09:29:28;4.30;73.90
73277;DHT22;61501;43.316;5.372;2023-01-28T09:31:54;4.40;73.80
73277;DHT22;61501;43.316;5.372;2023-01-28T09:34:20;4.40;73.20
73277;DHT22;61501;43.316;5.372;2023-01-28T09:36:46;4.50;73.20
73277;DHT22;61501;43.316;5.372;2023-01-28T09:39:12;4.50;72.80
73277;DHT22;61501;43.316;5.372;2023-01-28T09:45:01;4.50;73.40
73277;DHT22;61501;43.316;5.372;2023-01-28T09:50:37;4.50;72.70
73277;DHT22;61501;43.316;5.372;2023-01-28T09:53:27;4.60;73.10
73277;DHT22;61501;43.316;5.372;2023-01-28T09:56:03;5.00;74.40
73277;DHT22;61501;43.316;5.372;2023-01-28T09:58:30;5.30;73.90
73277;DHT22;61501;43.316;5.372;2023-01-28T10:01:23;5.50;72.00
73277;DHT22;61501;43.316;5.372;2023-01-28T10:04:01;5.60;71.00
73277;DHT22;61501;43.316;5.372;2023-01-28T10:09:19;5.80;70.20
73277;DHT22;61501;43.316;5.372;2023-01-28T10:19:56;5.30;69.70
73277;DHT22;61501;43.316;5.372;2023-01-28T10:22:28;5.10;70.50
73277;DHT22;61501;43.316;5.372;2023-01-28T10:24:57;5.00;71.20
73277;DHT22;61501;43.316;5.372;2023-01-28T10:27:28;5.00;72.10
73277;DHT22;61501;43.316;5.372;2023-01-28T10:29:55;4.90;71.70
73277;DHT22;61501;43.316;5.372;2023-01-28T10:32:33;4.80;72.30
73277;DHT22;61501;43.316;5.372;2023-01-28T10:35:00;4.80;72.20
73277;DHT22;61501;43.316;5.372;2023-01-28T10:37:33;4.80;72.20
73277;DHT22;61501;43.316;5.372;2023-01-28T10:40:00;4.70;72.10
73277;DHT22;61501;43.316;5.372;2023-01-28T10:42:32;4.70;72.40
73277;DHT22;61501;43.316;5.372;2023-01-28T10:47:52;4.80;72.90
73277;DHT22;61501;43.316;5.372;2023-01-28T10:50:25;4.80;72.40
73277;DHT22;61501;43.316;5.372;2023-01-28T10:52:59;4.80;72.00
73277;DHT22;61501;43.316;5.372;2023-01-28T10:55:43;4.80;71.90
73277;DHT22;61501;43.316;5.372;2023-01-28T10:58:23;4.80;71.60
73277;DHT22;61501;43.316;5.372;2023-01-28T11:00:54;4.80;71.40
73277;DHT22;61501;43.316;5.372;2023-01-28T11:03:22;4.90;71.20
73277;DHT22;61501;43.316;5.372;2023-01-28T11:05:53;4.90;70.80
73277;DHT22;61501;43.316;5.372;2023-01-28T11:08:21;4.90;69.90
73277;DHT22;61501;43.316;5.372;2023-01-28T11:10:48;4.90;69.60
73277;DHT22;61501;43.316;5.372;2023-01-28T11:13:19;4.90;69.80
73277;DHT22;61501;43.316;5.372;2023-01-28T11:16:16;5.00;68.90
73277;DHT22;61501;43.316;5.372;2023-01-28T11:18:53;5.10;68.90
73277;DHT22;61501;43.316;5.372;2023-01-28T11:21:28;5.20;67.90
73277;DHT22;61501;43.316;5.372;2023-01-28T11:24:01;5.20;67.60
73277;DHT22;61501;43.316;5.372;2023-01-28T11:26:31;5.20;67.50
73277;DHT22;61501;43.316;5.372;2023-01-28T11:28:58;5.20;67.30
73277;DHT22;61501;43.316;5.372;2023-01-28T11:31:25;5.20;67.10
73277;DHT22;61501;43.316;5.372;2023-01-28T11:33:55;5.20;66.60
73277;DHT22;61501;43.316;5.372;2023-01-28T11:36:24;5.20;66.60
73277;DHT22;61501;43.316;5.372;2023-01-28T11:39:13;5.20;66.90
73277;DHT22;61501;43.316;5.372;2023-01-28T11:41:39;5.20;67.20
73277;DHT22;61501;43.316;5.372;2023-01-28T11:44:24;5.20;66.80
73277;DHT22;61501;43.316;5.372;2023-01-28T12:00:18;5.10;70.80
73277;DHT22;61501;43.316;5.372;2023-01-28T12:03:08;5.10;71.60
73277;DHT22;61501;43.316;5.372;2023-01-28T12:05:52;5.10;71.90
73277;DHT22;61501;43.316;5.372;2023-01-28T12:08:36;5.10;72.40
73277;DHT22;61501;43.316;5.372;2023-01-28T12:11:29;5.10;72.50
73277;DHT22;61501;43.316;5.372;2023-01-28T12:14:38;5.00;72.00
73277;DHT22;61501;43.316;5.372;2023-01-28T12:17:38;5.10;72.90
73277;DHT22;61501;43.316;5.372;2023-01-28T12:25:59;5.10;72.40
73277;DHT22;61501;43.316;5.372;2023-01-28T12:37:13;5.00;73.70
73277;DHT22;61501;43.316;5.372;2023-01-28T12:42:14;5.10;73.40
73277;DHT22;61501;43.316;5.372;2023-01-28T12:44:58;5.20;73.20
73277;DHT22;61501;43.316;5.372;2023-01-28T12:47:36;5.30;72.90
73277;DHT22;61501;43.316;5.372;2023-01-28T12:50:12;5.30;72.10
73277;DHT22;61501;43.316;5.372;2023-01-28T12:52:43;5.40;72.30
73277;DHT22;61501;43.316;5.372;2023-01-28T12:55:21;5.40;71.50
73277;DHT22;61501;43.316;5.372;2023-01-28T12:57:50;5.40;70.90
73277;DHT22;61501;43.316;5.372;2023-01-28T13:00:35;5.40;71.20
73277;DHT22;61501;43.316;5.372;2023-01-28T13:03:24;5.70;70.60
73277;DHT22;61501;43.316;5.372;2023-01-28T13:06:06;5.90;69.10
73277;DHT22;61501;43.316;5.372;2023-01-28T13:08:34;6.10;67.80
73277;DHT22;61501;43.316;5.372;2023-01-28T13:11:01;6.90;65.90
73277;DHT22;61501;43.316;5.372;2023-01-28T13:13:35;7.90;61.50
73277;DHT22;61501;43.316;5.372;2023-01-28T13:16:02;8.90;58.10
73277;DHT22;61501;43.316;5.372;2023-01-28T13:18:44;10.60;53.30
73277;DHT22;61501;43.316;5.372;2023-01-28T13:23:49;10.20;51.50
73277;DHT22;61501;43.316;5.372;2023-01-28T13:29:06;11.50;48.50
73277;DHT22;61501;43.316;5.372;2023-01-28T13:31:37;11.10;49.00
73277;DHT22;61501;43.316;5.372;2023-01-28T13:34:04;11.10;49.40
73277;DHT22;61501;43.316;5.372;2023-01-28T13:36:47;11.70;47.60
73277;DHT22;61501;43.316;5.372;2023-01-28T13:41:44;12.50;44.70
73277;DHT22;61501;43.316;5.372;2023-01-28T13:44:31;11.20;46.30
73277;DHT22;61501;43.316;5.372;2023-01-28T13:49:33;9.30;52.40
73277;DHT22;61501;43.316;5.372;2023-01-28T13:55:42;9.40;51.10
73277;DHT22;61501;43.316;5.372;2023-01-28T14:11:56;10.70;48.00
73277;DHT22;61501;43.316;5.372;2023-01-28T14:14:23;10.90;47.70
73277;DHT22;61501;43.316;5.372;2023-01-28T14:17:13;11.60;46.10
73277;DHT22;61501;43.316;5.372;2023-01-28T14:19:43;11.70;45.90
73277;DHT22;61501;43.316;5.372;2023-01-28T14:22:16;11.80;45.60
73277;DHT22;61501;43.316;5.372;2023-01-28T14:24:41;12.10;45.60
73277;DHT22;61501;43.316;5.372;2023-01-28T14:27:17;11.90;45.00
73277;DHT22;61501;43.316;5.372;2023-01-28T14:30:15;12.00;45.30
73277;DHT22;61501;43.316;5.372;2023-01-28T14:32:48;11.30;46.70
73277;DHT22;61501;43.316;5.372;2023-01-28T14:35:42;11.50;46.80
73277;DHT22;61501;43.316;5.372;2023-01-28T14:38:11;11.40;46.30
73277;DHT22;61501;43.316;5.372;2023-01-28T14:40:38;11.20;46.70
73277;DHT22;61501;43.316;5.372;2023-01-28T14:43:06;11.00;47.60
73277;DHT22;61501;43.316;5.372;2023-01-28T14:48:25;9.90;50.80
73277;DHT22;61501;43.316;5.372;2023-01-28T15:01:48;9.40;52.20
73277;DHT22;61501;43.316;5.372;2023-01-28T15:04:40;8.90;55.40
73277;DHT22;61501;43.316;5.372;2023-01-28T15:07:32;8.30;57.30
73277;DHT22;61501;43.316;5.372;2023-01-28T15:10:10;8.40;58.40
73277;DHT22;61501;43.316;5.372;2023-01-28T15:12:41;8.50;57.60
73277;DHT22;61501;43.316;5.372;2023-01-28T15:15:35;8.60;57.70
73277;DHT22;61501;43.316;5.372;2023-01-28T15:18:15;8.50;57.70
73277;DHT22;61501;43.316;5.372;2023-01-28T15:20:45;8.30;58.80
73277;DHT22;61501;43.316;5.372;2023-01-28T15:23:15;8.00;59.80
73277;DHT22;61501;43.316;5.372;2023-01-28T15:25:42;7.90;61.40
73277;DHT22;61501;43.316;5.372;2023-01-28T15:28:14;7.80;61.30
73277;DHT22;61501;43.316;5.372;2023-01-28T15:30:44;7.80;61.00
73277;DHT22;61501;43.316;5.372;2023-01-28T15:33:14;7.80;61.60
73277;DHT22;61501;43.316;5.372;2023-01-28T15:35:51;7.80;61.90
73277;DHT22;61501;43.316;5.372;2023-01-28T15:38:17;7.70;62.40
73277;DHT22;61501;43.316;5.372;2023-01-28T15:40:47;7.60;62.60
73277;DHT22;61501;43.316;5.372;2023-01-28T15:43:25;7.50;63.00
73277;DHT22;61501;43.316;5.372;2023-01-28T15:45:54;7.50;63.30
73277;DHT22;61501;43.316;5.372;2023-01-28T15:48:22;7.50;63.90
73277;DHT22;61501;43.316;5.372;2023-01-28T15:51:00;7.60;64.00
73277;DHT22;61501;43.316;5.372;2023-01-28T15:53:50;7.60;63.90
73277;DHT22;61501;43.316;5.372;2023-01-28T15:56:14;7.60;64.30
73277;DHT22;61501;43.316;5.372;2023-01-28T15:58:41;7.50;64.10
73277;DHT22;61501;43.316;5.372;2023-01-28T16:03:33;7.50;65.30
73277;DHT22;61501;43.316;5.372;2023-01-28T16:06:22;7.40;65.70
73277;DHT22;61501;43.316;5.372;2023-01-28T16:08:59;7.20;66.20
73277;DHT22;61501;43.316;5.372;2023-01-28T16:11:34;7.10;67.10
73277;DHT22;61501;43.316;5.372;2023-01-28T16:14:02;7.00;67.80
73277;DHT22;61501;43.316;5.372;2023-01-28T16:16:31;7.00;68.60
73277;DHT22;61501;43.316;5.372;2023-01-28T16:18:58;7.00;68.40
73277;DHT22;61501;43.316;5.372;2023-01-28T16:21:30;7.00;68.70
73277;DHT22;61501;43.316;5.372;2023-01-28T16:24:04;7.10;68.90
73277;DHT22;61501;43.316;5.372;2023-01-28T16:26:33;7.40;69.70
73277;DHT22;61501;43.316;5.372;2023-01-28T16:29:14;7.40;68.30
73277;DHT22;61501;43.316;5.372;2023-01-28T16:31:41;7.30;67.90
73277;DHT22;61501;43.316;5.372;2023-01-28T16:34:09;7.20;68.80
73277;DHT22;61501;43.316;5.372;2023-01-28T16:36:34;7.20;69.00
73277;DHT22;61501;43.316;5.372;2023-01-28T16:39:00;7.20;69.10
73277;DHT22;61501;43.316;5.372;2023-01-28T16:41:28;7.10;69.20
73277;DHT22;61501;43.316;5.372;2023-01-28T16:43:56;7.30;69.40
73277;DHT22;61501;43.316;5.372;2023-01-28T16:46:26;7.30;69.10
73277;DHT22;61501;43.316;5.372;2023-01-28T16:48:51;7.30;68.20
73277;DHT22;61501;43.316;5.372;2023-01-28T16:51:18;7.20;68.60
73277;DHT22;61501;43.316;5.372;2023-01-28T16:53:46;7.20;69.10
73277;DHT22;61501;43.316;5.372;2023-01-28T16:56:26;7.20;68.90
73277;DHT22;61501;43.316;5.372;2023-01-28T16:58:52;7.10;68.80
73277;DHT22;61501;43.316;5.372;2023-01-28T17:01:18;7.00;69.60
73277;DHT22;61501;43.316;5.372;2023-01-28T17:03:44;6.80;70.60
73277;DHT22;61501;43.316;5.372;2023-01-28T17:06:15;6.80;70.80
73277;DHT22;61501;43.316;5.372;2023-01-28T17:08:41;6.80;70.50
73277;DHT22;61501;43.316;5.372;2023-01-28T17:11:07;6.80;70.60
73277;DHT22;61501;43.316;5.372;2023-01-28T17:13:33;6.80;71.10
73277;DHT22;61501;43.316;5.372;2023-01-28T17:16:02;6.70;70.70
73277;DHT22;61501;43.316;5.372;2023-01-28T17:18:28;6.70;70.70
73277;DHT22;61501;43.316;5.372;2023-01-28T17:20:58;6.70;70.60
73277;DHT22;61501;43.316;5.372;2023-01-28T17:23:24;6.60;70.60
73277;DHT22;61501;43.316;5.372;2023-01-28T17:25:49;6.60;70.30
73277;DHT22;61501;43.316;5.372;2023-01-28T17:28:15;6.60;70.50
73277;DHT22;61501;43.316;5.372;2023-01-28T17:30:41;6.60;70.80
73277;DHT22;61501;43.316;5.372;2023-01-28T17:33:07;6.60;71.10
73277;DHT22;61501;43.316;5.372;2023-01-28T17:35:34;6.60;71.50
73277;DHT22;61501;43.316;5.372;2023-01-28T17:38:03;6.50;71.80
73277;DHT22;61501;43.316;5.372;2023-01-28T17:40:29;6.50;72.10
73277;DHT22;61501;43.316;5.372;2023-01-28T17:42:55;6.40;72.50
73277;DHT22;61501;43.316;5.372;2023-01-28T17:45:21;6.50;72.50
73277;DHT22;61501;43.316;5.372;2023-01-28T17:47:47;6.40;72.60
73277;DHT22;61501;43.316;5.372;2023-01-28T17:50:12;6.40;72.60
73277;DHT22;61501;43.316;5.372;2023-01-28T17:52:38;6.30;72.90
73277;DHT22;61501;43.316;5.372;2023-01-28T17:55:07;6.30;72.80
73277;DHT22;61501;43.316;5.372;2023-01-28T17:57:34;6.30;72.80
73277;DHT22;61501;43.316;5.372;2023-01-28T18:00:00;6.30;72.60
73277;DHT22;61501;43.316;5.372;2023-01-28T18:02:26;6.40;72.60
73277;DHT22;61501;43.316;5.372;2023-01-28T18:04:52;6.40;72.80